Time;durP1;ratioP1;P1;durP2;ratioP2;P2;SDS_P1;SDS_P2;PMS_P1;PMS_P2;Temp;Humidity;BMP_temperature;BMP_pressure;BME280_temperature;BME280_humidity;BME280_pressure;Samples;Min_cycle;Max_cycle;Signal;HPM_P1;HPM_P2
2023/05/05 00:01:46;;;;;;;19.02;11.00;;;;;;;8.66;100.00;100789.16;5054816;28;20212;-74
2023/05/05 00:04:12;;;;;;;19.42;11.50;;;;;;;8.63;100.00;100787.25;5054170;28;20362;-80
2023/05/05 00:06:46;;;;;;;20.60;12.10;;;;;;;8.64;100.00;100786.00;5062132;28;20079;-76
2023/05/05 00:09:12;;;;;;;26.38;11.75;;;;;;;8.61;100.00;100784.06;5061137;28;20021;-76
2023/05/05 00:11:39;;;;;;;20.90;10.80;;;;;;;8.60;100.00;100790.25;5058918;28;20043;-73
2023/05/05 00:14:05;;;;;;;19.38;11.63;;;;;;;8.58;100.00;100779.31;5056317;28;20032;-75
2023/05/05 00:16:31;;;;;;;22.15;12.02;;;;;;;8.56;100.00;100778.97;5055362;28;20024;-75
2023/05/05 00:19:01;;;;;;;19.65;11.43;;;;;;;8.58;100.00;100787.88;5053656;28;20389;-75
2023/05/05 00:21:31;;;;;;;23.40;12.30;;;;;;;8.60;100.00;100793.91;5054345;28;20043;-76
2023/05/05 00:23:58;;;;;;;19.30;10.85;;;;;;;8.62;100.00;100787.72;5053511;28;20373;-76
2023/05/05 00:26:23;;;;;;;17.45;10.18;;;;;;;8.65;100.00;100784.75;5055202;28;20409;-77
2023/05/05 00:28:51;;;;;;;21.02;12.38;;;;;;;8.63;100.00;100772.22;5055346;28;20029;-74
2023/05/05 00:31:17;;;;;;;24.45;11.27;;;;;;;8.66;100.00;100782.66;5055236;28;20029;-75
2023/05/05 00:33:43;;;;;;;19.88;11.80;;;;;;;8.63;100.00;100783.63;5054931;28;20060;-76
2023/05/05 00:36:10;;;;;;;19.67;12.23;;;;;;;8.61;100.00;100786.13;5038179;28;20115;-75
2023/05/05 00:38:37;;;;;;;21.45;11.82;;;;;;;8.60;100.00;100790.25;5056440;28;20051;-76
2023/05/05 00:41:03;;;;;;;25.05;12.18;;;;;;;8.56;100.00;100787.53;5055214;28;20486;-74
2023/05/05 00:43:31;;;;;;;19.25;11.18;;;;;;;8.54;100.00;100772.97;5055791;28;20021;-75
2023/05/05 00:46:08;;;;;;;23.70;12.35;;;;;;;8.57;100.00;100771.22;5055225;28;20493;-75
2023/05/05 00:48:34;;;;;;;21.55;12.73;;;;;;;8.58;100.00;100778.53;5053171;28;20462;-76
2023/05/05 00:51:00;;;;;;;25.08;12.20;;;;;;;8.59;100.00;100768.72;5052969;28;20032;-74
2023/05/05 00:53:35;;;;;;;24.25;12.40;;;;;;;8.60;100.00;100773.97;5055036;28;20432;-74
2023/05/05 00:56:18;;;;;;;20.70;11.10;;;;;;;8.60;100.00;100773.16;5055221;28;20033;-75
2023/05/05 00:58:45;;;;;;;23.52;11.88;;;;;;;8.62;100.00;100776.31;5054405;28;20052;-74
2023/05/05 01:01:11;;;;;;;22.48;12.43;;;;;;;8.63;100.00;100773.00;5053150;28;20108;-74
2023/05/05 01:03:41;;;;;;;19.83;11.63;;;;;;;8.66;100.00;100771.28;5052757;28;20112;-75
2023/05/05 01:06:34;;;;;;;22.30;12.32;;;;;;;8.66;100.00;100771.28;5054017;28;20095;-74
2023/05/05 01:09:08;;;;;;;19.40;11.15;;;;;;;8.63;100.00;100773.00;5054054;28;20021;-75
2023/05/05 01:11:45;;;;;;;22.85;11.75;;;;;;;8.64;100.00;100770.97;5053698;28;20478;-75
2023/05/05 01:14:19;;;;;;;24.35;11.77;;;;;;;8.63;100.00;100760.81;5036003;28;20021;-76
2023/05/05 01:17:21;;;;;;;23.13;12.63;;;;;;;8.63;100.00;100758.78;5035938;28;20025;-76
2023/05/05 01:20:01;;;;;;;39.03;12.63;;;;;;;8.59;100.00;100758.13;5016592;28;20084;-75
2023/05/05 01:22:33;;;;;;;21.85;11.85;;;;;;;8.59;100.00;100760.97;5036565;28;20055;-76
2023/05/05 01:25:30;;;;;;;23.05;11.43;;;;;;;8.59;100.00;100760.19;5035790;28;20028;-74
2023/05/05 01:28:15;;;;;;;18.58;11.52;;;;;;;8.58;100.00;100755.72;5053658;28;20452;-76
2023/05/05 01:31:10;;;;;;;19.15;11.43;;;;;;;8.57;100.00;100754.16;5052014;28;20035;-76
2023/05/05 01:33:48;;;;;;;20.25;12.05;;;;;;;8.56;100.00;100747.66;5053269;28;20025;-75
2023/05/05 01:36:43;;;;;;;19.50;12.18;;;;;;;8.54;100.00;100755.88;5052266;28;20051;-74
2023/05/05 01:39:13;;;;;;;20.77;12.60;;;;;;;8.52;100.00;100746.22;5053030;28;20099;-74
2023/05/05 01:41:42;;;;;;;20.98;12.48;;;;;;;8.50;100.00;100745.91;5051999;28;20029;-75
2023/05/05 01:44:09;;;;;;;19.60;11.68;;;;;;;8.47;100.00;100741.91;5035541;28;20113;-75
2023/05/05 01:46:44;;;;;;;22.92;12.00;;;;;;;8.47;100.00;100741.91;5035494;28;20486;-75
2023/05/05 01:49:18;;;;;;;24.05;12.30;;;;;;;8.48;100.00;100752.06;5035182;28;20031;-75
2023/05/05 01:51:45;;;;;;;21.08;12.65;;;;;;;8.46;100.00;100751.72;5051768;28;20051;-76
2023/05/05 01:54:13;;;;;;;20.50;10.82;;;;;;;8.46;100.00;100753.78;5051685;28;20133;-74
2023/05/05 01:56:41;;;;;;;19.10;11.52;;;;;;;8.44;100.00;100745.72;5034822;28;20051;-74
2023/05/05 01:59:08;;;;;;;22.52;11.82;;;;;;;8.43;100.00;100749.81;5051798;28;20031;-75
2023/05/05 02:01:36;;;;;;;20.90;11.43;;;;;;;8.41;100.00;100743.00;5051900;28;20478;-74
2023/05/05 02:04:02;;;;;;;21.42;12.18;;;;;;;8.41;100.00;100734.47;5035954;28;20036;-75
2023/05/05 02:06:32;;;;;;;21.92;12.18;;;;;;;8.39;100.00;100741.44;5058010;28;20028;-75
2023/05/05 02:09:12;;;;;;;24.02;12.25;;;;;;;8.36;100.00;100745.19;5023764;28;20052;-76
2023/05/05 02:11:46;;;;;;;23.48;11.73;;;;;;;8.34;100.00;100750.56;5058643;28;20093;-75
2023/05/05 02:14:12;;;;;;;23.92;12.27;;;;;;;8.29;100.00;100751.19;5058665;28;20100;-75
2023/05/05 02:16:43;;;;;;;21.13;12.55;;;;;;;8.24;100.00;100743.25;5041557;28;20033;-75
2023/05/05 02:19:34;;;;;;;26.08;12.70;;;;;;;8.20;100.00;100744.63;5059318;28;20382;-76
2023/05/05 02:22:09;;;;;;;25.65;13.10;;;;;;;8.10;100.00;100740.91;5059465;28;20057;-76
2023/05/05 02:24:35;;;;;;;22.10;13.45;;;;;;;8.07;100.00;100743.88;5059301;28;20036;-77
2023/05/05 02:27:12;;;;;;;23.20;12.07;;;;;;;8.02;100.00;100744.47;5058126;28;20423;-75
2023/05/05 02:29:46;;;;;;;22.00;11.98;;;;;;;7.94;100.00;100739.06;5057943;28;20025;-76
2023/05/05 02:32:27;;;;;;;23.88;13.90;;;;;;;7.93;100.00;100746.00;5041473;28;20069;-77
2023/05/05 02:35:03;;;;;;;22.23;12.88;;;;;;;7.89;100.00;100742.50;5058365;28;20036;-75
2023/05/05 02:37:50;;;;;;;21.35;12.23;;;;;;;7.87;100.00;100745.03;5058462;28;20481;-75
2023/05/05 02:40:23;;;;;;;25.17;13.15;;;;;;;7.85;100.00;100741.06;5057607;28;20033;-75
2023/05/05 02:42:53;;;;;;;22.15;12.70;;;;;;;7.84;100.00;100740.25;5059414;28;20032;-75
2023/05/05 02:45:20;;;;;;;21.75;13.15;;;;;;;7.84;100.00;100736.63;5058606;28;20418;-75
2023/05/05 02:47:46;;;;;;;19.92;13.13;;;;;;;7.82;100.00;100742.78;5042759;28;20147;-75
2023/05/05 02:50:11;;;;;;;26.77;13.15;;;;;;;7.81;100.00;100746.09;5057841;28;20120;-76
2023/05/05 02:52:37;;;;;;;20.67;11.93;;;;;;;7.79;100.00;100740.06;5041975;28;20029;-75
2023/05/05 02:55:06;;;;;;;23.67;11.77;;;;;;;7.75;100.00;100737.38;5059469;28;20373;-76
2023/05/05 02:57:47;;;;;;;18.90;12.05;;;;;;;7.72;100.00;100738.28;5057779;28;20171;-76
2023/05/05 03:00:41;;;;;;;19.33;11.82;;;;;;;7.69;100.00;100744.09;5059151;28;20076;-76
2023/05/05 03:03:17;;;;;;;29.00;12.13;;;;;;;7.63;100.00;100746.75;5030885;28;20063;-77
2023/05/05 03:06:13;;;;;;;27.40;13.18;;;;;;;7.61;100.00;100748.47;5057862;28;20044;-75
2023/05/05 03:08:57;;;;;;;24.75;11.95;;;;;;;7.57;100.00;100750.66;5052215;28;20043;-74
2023/05/05 03:11:48;;;;;;;26.67;12.63;;;;;;;7.56;100.00;100744.16;5058961;28;20036;-76
2023/05/05 03:14:18;;;;;;;37.78;17.02;;;;;;;7.53;100.00;100753.59;5050655;28;20393;-75
2023/05/05 03:16:46;;;;;;;49.03;21.27;;;;;;;7.51;100.00;100748.41;5054647;28;20033;-75
2023/05/05 03:19:14;;;;;;;34.30;16.13;;;;;;;7.54;100.00;100752.34;5054446;28;20459;-76
2023/05/05 03:21:41;;;;;;;30.42;13.63;;;;;;;7.51;100.00;100753.28;5054366;28;20044;-75
2023/05/05 03:24:14;;;;;;;22.77;12.77;;;;;;;7.48;100.00;100754.19;5037987;28;20358;-77
2023/05/05 03:26:45;;;;;;;22.42;12.02;;;;;;;7.47;100.00;100759.06;5054818;28;20032;-75
2023/05/05 03:29:14;;;;;;;19.50;10.00;;;;;;;7.44;100.00;100762.84;5054576;28;20137;-75
2023/05/05 03:31:41;;;;;;;22.92;12.05;;;;;;;7.39;100.00;100763.44;5055527;28;20540;-76
2023/05/05 03:34:08;;;;;;;19.25;11.98;;;;;;;7.40;100.00;100767.09;5054162;28;20128;-76
2023/05/05 03:36:34;;;;;;;23.88;11.77;;;;;;;7.37;100.00;100763.09;5054820;28;20107;-75
2023/05/05 03:39:00;;;;;;;19.27;11.40;;;;;;;7.38;100.00;100769.56;5055783;28;20036;-77
2023/05/05 03:41:30;;;;;;;21.02;11.52;;;;;;;7.37;100.00;100768.78;5054134;28;20031;-76
2023/05/05 03:43:58;;;;;;;21.05;11.57;;;;;;;7.36;100.00;100769.25;5053988;28;20497;-76
2023/05/05 03:46:23;;;;;;;22.77;11.57;;;;;;;7.37;100.00;100768.78;5054071;28;20041;-77
2023/05/05 03:48:50;;;;;;;23.73;11.90;;;;;;;7.39;100.00;100766.28;5053807;28;20052;-75
2023/05/05 03:51:20;;;;;;;22.42;12.18;;;;;;;7.44;100.00;100767.75;5054195;28;20033;-75
2023/05/05 03:54:00;;;;;;;21.73;11.80;;;;;;;7.47;100.00;100772.53;5037229;28;20056;-75
2023/05/05 03:56:26;;;;;;;22.52;12.95;;;;;;;7.47;100.00;100767.59;5055192;28;20108;-76
2023/05/05 03:58:52;;;;;;;23.65;11.48;;;;;;;7.49;100.00;100767.16;5054612;28;20041;-76
2023/05/05 04:01:18;;;;;;;25.55;13.75;;;;;;;7.51;100.00;100776.84;5056414;28;20119;-75
2023/05/05 04:03:45;;;;;;;22.80;11.00;;;;;;;7.58;100.00;100783.50;5061535;28;20035;-75
2023/05/05 04:06:12;;;;;;;23.67;12.02;;;;;;;7.60;100.00;100781.81;5062158;28;20035;-75
2023/05/05 04:08:40;;;;;;;21.33;10.85;;;;;;;7.63;100.00;100783.72;5060084;28;20029;-76
2023/05/05 04:11:05;;;;;;;20.95;11.23;;;;;;;7.64;100.00;100785.31;5053796;28;20029;-75
2023/05/05 04:13:31;;;;;;;23.05;11.95;;;;;;;7.67;100.00;100777.91;5052400;28;20052;-75
2023/05/05 04:15:58;;;;;;;25.27;11.45;;;;;;;7.70;100.00;100780.63;5053646;28;20025;-75
2023/05/05 04:18:25;;;;;;;22.77;12.13;;;;;;;7.69;100.00;100776.19;5054964;28;20337;-76
2023/05/05 04:20:53;;;;;;;22.02;10.73;;;;;;;7.69;100.00;100773.34;5020289;28;20029;-75
2023/05/05 04:23:18;;;;;;;24.90;12.50;;;;;;;7.70;100.00;100774.13;5054974;28;20101;-76
2023/05/05 04:25:46;;;;;;;25.88;11.75;;;;;;;7.72;100.00;100771.63;5054520;28;20112;-75
2023/05/05 04:28:13;;;;;;;22.73;11.48;;;;;;;7.73;100.00;100773.19;5052809;28;20071;-75
2023/05/05 04:30:40;;;;;;;25.30;12.60;;;;;;;7.77;100.00;100766.13;5054604;28;20100;-75
2023/05/05 04:33:06;;;;;;;24.65;11.52;;;;;;;7.83;100.00;100774.88;5054094;28;20041;-76
2023/05/05 04:35:33;;;;;;;18.73;11.23;;;;;;;7.90;100.00;100783.16;5054276;28;20033;-76
2023/05/05 04:38:01;;;;;;;26.92;11.35;;;;;;;7.96;100.00;100787.00;5054926;28;20414;-75
2023/05/05 04:40:45;;;;;;;20.25;12.02;;;;;;;8.00;100.00;100789.69;5054523;28;20467;-74
2023/05/05 04:43:13;;;;;;;19.90;12.45;;;;;;;8.02;100.00;100787.97;5054458;28;20409;-76
2023/05/05 04:45:39;;;;;;;21.52;12.20;;;;;;;8.07;100.00;100787.38;5052893;28;20062;-77
2023/05/05 04:48:05;;;;;;;23.25;11.77;;;;;;;8.16;100.00;100789.53;5053806;28;20044;-77
2023/05/05 04:50:32;;;;;;;23.30;12.50;;;;;;;8.30;100.00;100797.53;5053903;28;20044;-75
2023/05/05 04:52:57;;;;;;;21.85;11.73;;;;;;;8.51;100.00;100798.75;5054921;28;20363;-80
2023/05/05 04:55:22;;;;;;;24.77;12.52;;;;;;;8.73;100.00;100797.44;5053549;28;20579;-78
2023/05/05 04:57:48;;;;;;;27.27;12.80;;;;;;;9.03;100.00;100795.81;5053316;28;20053;-77
2023/05/05 05:00:14;;;;;;;18.50;12.68;;;;;;;9.31;100.00;100805.22;5053705;28;20116;-77
2023/05/05 05:02:40;;;;;;;23.65;12.50;;;;;;;9.45;100.00;100804.59;5054305;28;20082;-78
2023/05/05 05:05:06;;;;;;;22.95;12.10;;;;;;;9.60;100.00;100799.06;5053484;28;20091;-77
2023/05/05 05:07:32;;;;;;;20.02;12.20;;;;;;;9.84;100.00;100802.16;5033786;28;20037;-79
2023/05/05 05:09:58;;;;;;;17.65;12.10;;;;;;;10.04;100.00;100800.38;5053620;28;20029;-77
2023/05/05 05:12:23;;;;;;;21.25;11.60;;;;;;;10.31;100.00;100798.75;5053434;28;20051;-77
2023/05/05 05:14:50;;;;;;;24.48;12.73;;;;;;;10.57;100.00;100799.19;5053076;28;20037;-75
2023/05/05 05:17:19;;;;;;;22.92;12.90;;;;;;;10.85;100.00;100806.38;5053784;28;20033;-74
2023/05/05 05:19:44;;;;;;;20.58;13.23;;;;;;;11.13;100.00;100804.19;5053154;28;20072;-76
2023/05/05 05:22:14;;;;;;;19.95;12.88;;;;;;;11.29;100.00;100807.44;5053256;28;20052;-74
2023/05/05 05:24:41;;;;;;;18.40;13.05;;;;;;;11.29;100.00;100803.78;5051369;28;20075;-76
2023/05/05 05:27:09;;;;;;;22.85;13.00;;;;;;;11.39;100.00;100814.72;5051005;28;20061;-76
2023/05/05 05:29:41;;;;;;;21.05;13.45;;;;;;;11.56;100.00;100820.00;5051692;28;20360;-77
2023/05/05 05:32:06;;;;;;;23.67;14.07;;;;;;;11.65;100.00;100806.44;5037780;28;20033;-77
2023/05/05 05:34:31;;;;;;;26.15;13.10;;;;;;;11.82;100.00;100823.94;5051321;28;20025;-78
2023/05/05 05:36:58;;;;;;;21.73;13.50;;;;;;;11.93;100.00;100817.66;5052366;28;20051;-79
2023/05/05 05:39:29;;;;;;;22.20;12.80;;;;;;;12.10;100.00;100813.06;5051418;28;20488;-82
2023/05/05 05:41:54;;;;;;;22.55;13.20;;;;;;;12.28;100.00;100830.06;5052107;28;20032;-81
2023/05/05 05:44:26;;;;;;;22.88;12.77;;;;;;;12.50;100.00;100836.28;5051052;28;20089;-82
2023/05/05 05:46:51;;;;;;;19.58;12.25;;;;;;;12.74;100.00;100843.97;5052165;28;20020;-81
2023/05/05 05:49:20;;;;;;;21.38;12.13;;;;;;;12.98;98.56;100838.91;5051917;28;20051;-81
2023/05/05 05:51:45;;;;;;;21.73;12.95;;;;;;;13.21;97.59;100845.78;5050834;28;20040;-82
2023/05/05 05:54:14;;;;;;;22.33;12.40;;;;;;;13.32;94.54;100845.97;5052107;28;20029;-83
2023/05/05 05:56:40;;;;;;;22.40;12.52;;;;;;;13.49;93.32;100855.63;5050668;28;20386;-81
2023/05/05 05:59:07;;;;;;;20.55;12.00;;;;;;;13.60;92.74;100850.06;5052644;28;20021;-82
2023/05/05 06:01:55;;;;;;;20.80;12.77;;;;;;;13.72;91.00;100846.06;5052552;28;20035;-81
2023/05/05 06:04:21;;;;;;;22.38;13.73;;;;;;;13.81;90.71;100851.66;5051715;28;20028;-82
2023/05/05 06:06:47;;;;;;;23.45;13.52;;;;;;;13.89;90.46;100846.25;5052977;28;20025;-83
2023/05/05 06:09:14;;;;;;;20.98;12.32;;;;;;;14.06;91.06;100846.47;5053248;28;20075;-82
2023/05/05 06:11:39;;;;;;;18.90;12.77;;;;;;;14.19;90.21;100850.53;5052957;28;20037;-81
2023/05/05 06:14:05;;;;;;;17.98;13.48;;;;;;;14.37;89.61;100853.13;5052678;28;20397;-81
2023/05/05 06:16:31;;;;;;;19.42;12.95;;;;;;;14.35;87.62;100863.53;5052989;28;20458;-82
2023/05/05 06:18:58;;;;;;;19.75;13.07;;;;;;;14.37;88.50;100850.25;5052097;28;20021;-81
2023/05/05 06:21:23;;;;;;;21.25;13.10;;;;;;;14.44;88.85;100849.00;5052844;28;20078;-81
2023/05/05 06:23:49;;;;;;;20.60;13.57;;;;;;;14.53;88.95;100843.06;5053084;28;20037;-82
2023/05/05 06:26:16;;;;;;;20.75;13.23;;;;;;;14.62;88.96;100850.78;5051980;28;20021;-82
2023/05/05 06:28:43;;;;;;;26.63;12.95;;;;;;;14.92;87.64;100839.81;5059127;28;20079;-83
2023/05/05 06:31:08;;;;;;;23.02;12.02;;;;;;;16.30;81.39;100854.28;5055170;28;20110;-82
2023/05/05 06:33:42;;;;;;;22.15;12.15;;;;;;;18.59;71.43;100849.75;5052097;28;20056;-82
2023/05/05 06:36:10;;;;;;;19.13;10.98;;;;;;;20.21;54.97;100862.72;5052893;28;20021;-76
2023/05/05 06:38:37;;;;;;;17.65;10.52;;;;;;;22.03;49.21;100861.06;5051572;28;20470;-78
2023/05/05 06:41:03;;;;;;;16.20;11.00;;;;;;;23.48;42.45;100865.66;5052865;28;20036;-77
2023/05/05 06:43:29;;;;;;;17.80;11.30;;;;;;;24.46;38.51;100866.34;5052901;28;20025;-79
2023/05/05 06:45:54;;;;;;;27.75;11.38;;;;;;;25.55;36.10;100863.91;5052683;28;20021;-77
2023/05/05 06:48:21;;;;;;;15.85;10.27;;;;;;;26.57;34.79;100857.44;5052849;28;20536;-77
2023/05/05 06:50:46;;;;;;;13.82;10.13;;;;;;;27.45;31.07;100861.84;5052222;28;20478;-75
2023/05/05 06:53:12;;;;;;;14.48;9.45;;;;;;;28.35;31.24;100852.69;5055029;28;20074;-77
2023/05/05 06:55:49;;;;;;;16.00;10.48;;;;;;;29.80;29.38;100849.22;5054991;28;20523;-77
2023/05/05 06:58:17;;;;;;;15.88;9.77;;;;;;;30.56;27.01;100845.53;5055112;28;20045;-76
2023/05/05 07:00:42;;;;;;;13.88;9.63;;;;;;;30.08;27.10;100830.00;5055327;28;20025;-76
2023/05/05 07:03:08;;;;;;;12.10;9.52;;;;;;;29.54;27.24;100835.31;5056316;28;20540;-78
2023/05/05 07:05:35;;;;;;;18.45;10.13;;;;;;;29.55;27.21;100836.88;5055078;28;20040;-75
2023/05/05 07:08:02;;;;;;;25.33;11.63;;;;;;;29.88;27.26;100834.31;5056035;28;20437;-77
2023/05/05 07:10:30;;;;;;;18.65;10.20;;;;;;;29.63;25.99;100834.59;5054658;28;20079;-76
2023/05/05 07:12:58;;;;;;;31.23;11.45;;;;;;;30.34;26.27;100837.19;5055613;28;20104;-75
2023/05/05 07:15:25;;;;;;;15.55;8.88;;;;;;;30.26;26.48;100831.47;5055863;28;20029;-77
2023/05/05 07:17:52;;;;;;;14.65;9.63;;;;;;;30.69;25.82;100828.78;5055867;28;20025;-77
2023/05/05 07:20:18;;;;;;;12.85;8.82;;;;;;;31.16;25.82;100833.78;5055810;28;20044;-78
2023/05/05 07:22:44;;;;;;;12.35;8.55;;;;;;;31.92;24.74;100828.91;5054636;28;20032;-75
2023/05/05 07:25:11;;;;;;;14.07;8.95;;;;;;;31.73;23.00;100823.13;5055878;28;20028;-74
2023/05/05 07:27:36;;;;;;;12.27;8.27;;;;;;;31.42;24.06;100826.06;5037362;28;20123;-77
2023/05/05 07:30:02;;;;;;;12.45;8.65;;;;;;;31.45;23.77;100818.13;5055513;28;20121;-78
2023/05/05 07:32:32;;;;;;;8.98;7.70;;;;;;;31.47;23.25;100815.31;5038876;28;20493;-77
2023/05/05 07:34:59;;;;;;;10.10;7.70;;;;;;;32.06;23.27;100821.03;5055741;28;20040;-78
2023/05/05 07:37:25;;;;;;;12.30;8.20;;;;;;;32.32;22.39;100822.09;5055416;28;20079;-80
2023/05/05 07:39:51;;;;;;;11.25;7.75;;;;;;;31.88;22.10;100816.03;5055365;28;20017;-79
2023/05/05 07:42:19;;;;;;;8.23;7.32;;;;;;;32.29;22.54;100811.50;5055560;28;20408;-81
2023/05/05 07:44:48;;;;;;;12.52;6.90;;;;;;;32.48;21.83;100804.66;5056816;28;20044;-82
2023/05/05 07:47:13;;;;;;;9.55;7.13;;;;;;;32.78;21.81;100806.69;5055110;28;20024;-78
2023/05/05 07:49:43;;;;;;;9.57;6.95;;;;;;;33.31;20.89;100804.97;5052470;28;20098;-81
2023/05/05 07:52:11;;;;;;;8.43;6.00;;;;;;;33.35;20.97;100807.41;5053871;28;20044;-80
2023/05/05 07:54:37;;;;;;;9.00;6.60;;;;;;;33.37;21.76;100807.56;5053365;28;20552;-80
2023/05/05 07:57:05;;;;;;;14.38;6.97;;;;;;;34.07;22.77;100804.47;5052790;28;20124;-80
2023/05/05 07:59:34;;;;;;;11.32;7.72;;;;;;;34.24;21.35;100807.03;5054687;28;20473;-81
2023/05/05 08:02:00;;;;;;;10.85;7.00;;;;;;;34.28;21.30;100801.34;5071668;28;20039;-80
2023/05/05 08:04:25;;;;;;;8.05;6.30;;;;;;;34.32;20.88;100801.59;5076797;28;20017;-81
2023/05/05 08:06:52;;;;;;;9.95;5.95;;;;;;;34.37;20.61;100797.44;5075522;28;20028;-82
2023/05/05 08:09:17;;;;;;;9.23;6.65;;;;;;;33.73;20.97;100795.03;5061943;28;20025;-80
2023/05/05 08:11:44;;;;;;;7.97;6.85;;;;;;;33.97;20.70;100800.94;5055269;28;20457;-80
2023/05/05 08:14:10;;;;;;;7.93;5.72;;;;;;;33.58;20.80;100801.47;5055255;28;20017;-80
2023/05/05 08:16:39;;;;;;;7.25;6.13;;;;;;;33.03;21.02;100794.25;5053543;28;20282;-80
2023/05/05 08:19:05;;;;;;;9.07;6.13;;;;;;;33.28;21.27;100800.31;5055373;28;20017;-81
2023/05/05 08:21:32;;;;;;;9.90;5.53;;;;;;;33.36;20.62;100797.13;5039605;28;20496;-78
2023/05/05 08:23:57;;;;;;;11.07;6.05;;;;;;;33.23;20.53;100800.72;5061936;28;20036;-80
2023/05/05 08:26:24;;;;;;;8.38;5.85;;;;;;;32.83;20.81;100799.63;5055019;28;20359;-79
2023/05/05 08:28:49;;;;;;;10.98;6.18;;;;;;;32.75;20.86;100795.34;5053364;28;20076;-79
2023/05/05 08:31:15;;;;;;;8.70;6.65;;;;;;;32.72;21.19;100799.59;5054857;28;20485;-80
2023/05/05 08:33:43;;;;;;;7.88;6.03;;;;;;;32.98;21.32;100802.06;5052980;28;20114;-79
2023/05/05 08:36:10;;;;;;;9.63;5.10;;;;;;;33.25;20.75;100800.84;5054637;28;20025;-79
2023/05/05 08:38:36;;;;;;;7.93;5.72;;;;;;;33.14;20.24;100792.69;5053804;28;20044;-79
2023/05/05 08:41:17;;;;;;;6.82;5.25;;;;;;;32.33;21.03;100805.09;5054006;28;20102;-81
2023/05/05 08:43:44;;;;;;;7.22;4.93;;;;;;;32.12;21.31;100797.78;5054353;28;20043;-79
2023/05/05 08:46:13;;;;;;;6.65;4.45;;;;;;;32.33;20.66;100805.88;5053172;28;20079;-81
2023/05/05 08:48:42;;;;;;;11.93;4.80;;;;;;;32.31;20.35;100790.94;5052599;28;20021;-80
2023/05/05 08:51:09;;;;;;;6.50;4.85;;;;;;;32.10;20.86;100790.94;5052833;28;20107;-78
2023/05/05 08:53:53;;;;;;;9.35;4.88;;;;;;;31.85;20.74;100785.53;5053066;28;20033;-78
2023/05/05 08:56:26;;;;;;;7.97;4.68;;;;;;;31.75;21.04;100796.66;5054450;28;20454;-79
2023/05/05 08:58:55;;;;;;;8.32;3.90;;;;;;;31.60;21.01;100785.97;5052123;28;20137;-78
2023/05/05 09:01:22;;;;;;;6.47;4.30;;;;;;;31.44;20.86;100781.13;5035959;28;20033;-78
2023/05/05 09:04:04;;;;;;;6.53;3.80;;;;;;;30.69;20.37;100785.31;5035825;28;20224;-79
2023/05/05 09:06:32;;;;;;;;;;;;;;;30.17;20.98;100787.97;5054379;28;20048;-79
2023/05/05 09:09:07;;;;;;;5.82;3.70;;;;;;;29.93;20.93;100786.84;5053972;28;19913;-80
2023/05/05 09:11:34;;;;;;;8.40;3.63;;;;;;;29.61;20.83;100782.19;5052298;28;20020;-79
2023/05/05 09:14:01;;;;;;;6.53;3.60;;;;;;;29.32;21.60;100781.31;5035177;28;20033;-80
2023/05/05 09:16:26;;;;;;;18.85;4.13;;;;;;;29.24;21.56;100783.59;5052809;28;20482;-79
2023/05/05 09:19:02;;;;;;;6.28;3.42;;;;;;;28.64;21.48;100791.19;5052508;28;20032;-79
2023/05/05 09:21:28;;;;;;;8.80;3.55;;;;;;;27.94;22.64;100787.56;5035498;28;20073;-80
2023/05/05 09:24:11;;;;;;;6.20;3.70;;;;;;;27.62;23.41;100772.97;5053570;28;20047;-80
2023/05/05 09:26:44;;;;;;;5.25;3.03;;;;;;;27.60;22.87;100784.56;5052393;28;20048;-77
2023/05/05 09:29:20;;;;;;;7.38;3.20;;;;;;;27.22;22.33;100787.03;5036112;28;20048;-76
2023/05/05 09:32:11;;;;;;;6.18;2.88;;;;;;;27.15;23.66;100771.84;5053308;28;20381;-74
2023/05/05 09:34:38;;;;;;;5.90;3.20;;;;;;;27.00;23.70;100774.13;5053448;28;20020;-75
2023/05/05 09:37:04;;;;;;;3.90;2.90;;;;;;;26.71;23.69;100773.69;5055180;28;20334;-76
2023/05/05 09:39:32;;;;;;;9.88;3.42;;;;;;;26.51;23.86;100784.38;5056264;28;20024;-77
2023/05/05 09:41:58;;;;;;;6.25;3.50;;;;;;;26.32;24.80;100781.91;5055073;28;20099;-75
2023/05/05 09:44:36;;;;;;;13.88;4.75;;;;;;;26.09;23.75;100780.44;5053411;28;20033;-75
2023/05/05 09:47:02;;;;;;;8.05;3.55;;;;;;;25.97;24.18;100779.31;5053115;28;20032;-75
2023/05/05 09:49:27;;;;;;;25.13;5.25;;;;;;;25.91;24.27;100782.44;5054059;28;20449;-75
2023/05/05 09:51:54;;;;;;;12.13;3.88;;;;;;;25.81;24.60;100776.44;5054222;28;20020;-76
2023/05/05 09:54:42;;;;;;;7.60;3.70;;;;;;;25.86;25.21;100778.38;5052000;28;20481;-75
2023/05/05 09:57:32;;;;;;;21.15;5.03;;;;;;;25.87;25.18;100779.94;5051793;28;20039;-75
2023/05/05 09:59:59;;;;;;;14.55;4.55;;;;;;;25.42;25.24;100786.63;5053020;28;20025;-75
2023/05/05 10:02:33;;;;;;;8.95;3.35;;;;;;;25.10;25.71;100786.44;5051751;28;20159;-76
2023/05/05 10:05:14;;;;;;;8.80;3.90;;;;;;;24.94;26.04;100787.78;5053482;28;20032;-76
2023/05/05 10:07:46;;;;;;;13.93;4.38;;;;;;;24.62;25.73;100786.16;5053416;28;20049;-75
2023/05/05 10:10:14;;;;;;;9.77;4.13;;;;;;;24.14;25.92;100775.44;5051417;28;20063;-75
2023/05/05 10:12:42;;;;;;;11.02;4.45;;;;;;;23.74;27.40;100772.13;5051900;28;20033;-77
2023/05/05 10:15:10;;;;;;;7.38;3.95;;;;;;;23.69;27.29;100787.66;5051828;28;20497;-76
2023/05/05 10:18:02;;;;;;;7.53;4.40;;;;;;;23.52;27.59;100779.34;5051735;28;20104;-76
2023/05/05 10:20:30;;;;;;;10.68;4.03;;;;;;;23.50;28.74;100787.91;5052237;28;20025;-75
2023/05/05 10:23:06;;;;;;;5.72;3.42;;;;;;;23.54;28.95;100793.38;5052916;28;20023;-77
2023/05/05 10:25:54;;;;;;;12.02;4.00;;;;;;;23.40;28.34;100788.97;5052078;28;20028;-75
2023/05/05 10:28:44;;;;;;;5.03;3.58;;;;;;;23.03;28.64;100781.47;5056601;28;20382;-75
2023/05/05 10:31:17;;;;;;;7.43;3.67;;;;;;;22.87;29.00;100781.34;5041141;28;20052;-76
2023/05/05 10:34:02;;;;;;;6.20;4.20;;;;;;;22.98;29.70;100771.53;5055285;28;20033;-76
2023/05/05 10:36:32;;;;;;;4.32;3.53;;;;;;;22.96;28.63;100779.28;5056330;28;20463;-76
2023/05/05 10:38:59;;;;;;;6.72;4.05;;;;;;;22.69;29.07;100766.94;5038668;28;20025;-75
2023/05/05 10:41:25;;;;;;;8.38;3.70;;;;;;;22.73;29.36;100767.38;5055131;28;20043;-76
2023/05/05 10:43:53;;;;;;;21.35;5.40;;;;;;;22.62;29.06;100776.41;5055406;28;20162;-76
2023/05/05 10:46:33;;;;;;;16.48;4.68;;;;;;;22.59;30.84;100771.69;5054969;28;20029;-76
2023/05/05 10:49:29;;;;;;;15.55;6.38;;;;;;;22.48;29.91;100779.34;5056058;28;20021;-76
2023/05/05 10:52:17;;;;;;;15.80;4.80;;;;;;;22.31;29.89;100778.19;5012469;28;20080;-77
2023/05/05 10:55:01;;;;;;;4.40;3.58;;;;;;;22.21;30.45;100769.16;5056398;28;20029;-75
2023/05/05 10:57:31;;;;;;;11.45;3.88;;;;;;;22.07;31.02;100767.59;5055918;28;20124;-77
2023/05/05 10:59:58;;;;;;;7.43;4.28;;;;;;;21.74;30.11;100762.47;5054947;28;20116;-80
2023/05/05 11:02:29;;;;;;;4.93;3.50;;;;;;;21.68;30.80;100768.41;5056600;28;20056;-79
2023/05/05 11:05:21;;;;;;;5.77;3.10;;;;;;;21.57;30.90;100768.63;5038827;28;20099;-79
2023/05/05 11:07:48;;;;;;;;;;;;;;;21.35;30.60;100766.91;5056487;28;20023;-80
2023/05/05 11:10:16;;;;;;;4.10;2.85;;;;;;;21.24;30.97;100765.00;5038229;28;20037;-82
2023/05/05 11:12:58;;;;;;;6.75;3.60;;;;;;;21.23;32.25;100763.44;5056962;28;20025;-79
2023/05/05 11:15:30;;;;;;;31.67;6.20;;;;;;;21.17;31.08;100774.38;5056507;28;20031;-80
2023/05/05 11:17:59;;;;;;;20.00;4.80;;;;;;;20.93;31.22;100765.84;5056239;28;20470;-78
2023/05/05 11:20:38;;;;;;;15.55;4.38;;;;;;;20.88;31.22;100760.13;5055916;28;20020;-79
2023/05/05 11:23:06;;;;;;;6.40;3.35;;;;;;;20.93;32.19;100760.03;5054663;28;20040;-79
2023/05/05 11:25:40;;;;;;;10.57;3.60;;;;;;;20.98;32.38;100753.34;5055959;28;20029;-81
2023/05/05 11:28:29;;;;;;;10.18;3.38;;;;;;;20.93;31.69;100760.03;5056171;28;20025;-79
2023/05/05 11:30:55;;;;;;;10.13;3.38;;;;;;;20.72;31.66;100747.44;5055487;28;20057;-77